sensor_id;sensor_type;location;lat;lon;timestamp;P1;durP1;ratioP1;P2;durP2;ratioP2
46835;SDS011;32573;51.290;6.926;2023-04-25T00:01:16;5.60;;;2.13;;
46835;SDS011;32573;51.290;6.926;2023-04-25T00:03:47;6.47;;;2.28;;
46835;SDS011;32573;51.290;6.926;2023-04-25T00:06:18;10.82;;;3.00;;
46835;SDS011;32573;51.290;6.926;2023-04-25T00:08:47;5.50;;;2.30;;
46835;SDS011;32573;51.290;6.926;2023-04-25T00:11:19;6.18;;;2.65;;
46835;SDS011;32573;51.290;6.926;2023-04-25T00:13:48;5.45;;;2.40;;
46835;SDS011;32573;51.290;6.926;2023-04-25T00:16:19;5.18;;;2.40;;
46835;SDS011;32573;51.290;6.926;2023-04-25T00:18:49;6.15;;;2.40;;
46835;SDS011;32573;51.290;6.926;2023-04-25T00:21:20;10.15;;;3.42;;
46835;SDS011;32573;51.290;6.926;2023-04-25T00:23:52;8.50;;;2.70;;
46835;SDS011;32573;51.290;6.926;2023-04-25T00:26:21;11.68;;;3.13;;
46835;SDS011;32573;51.290;6.926;2023-04-25T00:28:50;6.43;;;2.45;;
46835;SDS011;32573;51.290;6.926;2023-04-25T00:31:25;5.95;;;2.65;;
46835;SDS011;32573;51.290;6.926;2023-04-25T00:33:58;6.63;;;2.53;;
46835;SDS011;32573;51.290;6.926;2023-04-25T00:36:27;4.38;;;2.17;;
46835;SDS011;32573;51.290;6.926;2023-04-25T00:38:58;8.13;;;3.17;;
46835;SDS011;32573;51.290;6.926;2023-04-25T00:41:27;8.77;;;2.83;;
46835;SDS011;32573;51.290;6.926;2023-04-25T00:43:57;7.53;;;2.55;;
46835;SDS011;32573;51.290;6.926;2023-04-25T00:46:32;9.20;;;3.15;;
46835;SDS011;32573;51.290;6.926;2023-04-25T00:49:01;8.68;;;2.88;;
46835;SDS011;32573;51.290;6.926;2023-04-25T00:51:30;7.53;;;3.05;;
46835;SDS011;32573;51.290;6.926;2023-04-25T00:54:03;6.80;;;3.10;;
46835;SDS011;32573;51.290;6.926;2023-04-25T00:56:35;8.63;;;3.03;;
46835;SDS011;32573;51.290;6.926;2023-04-25T00:59:05;6.45;;;2.60;;
46835;SDS011;32573;51.290;6.926;2023-04-25T01:01:36;6.45;;;2.83;;
46835;SDS011;32573;51.290;6.926;2023-04-25T01:04:07;6.93;;;2.88;;
46835;SDS011;32573;51.290;6.926;2023-04-25T01:06:36;8.88;;;2.80;;
46835;SDS011;32573;51.290;6.926;2023-04-25T01:09:06;8.63;;;2.90;;
46835;SDS011;32573;51.290;6.926;2023-04-25T01:11:39;7.75;;;3.20;;
46835;SDS011;32573;51.290;6.926;2023-04-25T01:14:08;5.15;;;2.40;;
46835;SDS011;32573;51.290;6.926;2023-04-25T01:16:38;7.53;;;3.33;;
46835;SDS011;32573;51.290;6.926;2023-04-25T01:19:09;8.05;;;3.38;;
46835;SDS011;32573;51.290;6.926;2023-04-25T01:21:41;8.73;;;2.88;;
46835;SDS011;32573;51.290;6.926;2023-04-25T01:24:13;7.40;;;2.75;;
46835;SDS011;32573;51.290;6.926;2023-04-25T01:26:42;6.10;;;2.80;;
46835;SDS011;32573;51.290;6.926;2023-04-25T01:29:21;7.05;;;3.05;;
46835;SDS011;32573;51.290;6.926;2023-04-25T01:31:51;9.23;;;3.28;;
46835;SDS011;32573;51.290;6.926;2023-04-25T01:34:20;7.20;;;3.20;;
46835;SDS011;32573;51.290;6.926;2023-04-25T01:36:52;5.45;;;2.50;;
46835;SDS011;32573;51.290;6.926;2023-04-25T01:39:25;5.80;;;2.83;;
46835;SDS011;32573;51.290;6.926;2023-04-25T01:41:54;4.88;;;2.45;;
46835;SDS011;32573;51.290;6.926;2023-04-25T01:44:26;7.20;;;3.17;;
46835;SDS011;32573;51.290;6.926;2023-04-25T01:46:55;6.78;;;2.65;;
46835;SDS011;32573;51.290;6.926;2023-04-25T01:49:25;8.57;;;3.10;;
46835;SDS011;32573;51.290;6.926;2023-04-25T01:51:57;6.75;;;2.63;;
46835;SDS011;32573;51.290;6.926;2023-04-25T01:54:26;7.82;;;2.63;;
46835;SDS011;32573;51.290;6.926;2023-04-25T01:56:58;6.85;;;2.80;;
46835;SDS011;32573;51.290;6.926;2023-04-25T01:59:31;7.70;;;3.13;;
46835;SDS011;32573;51.290;6.926;2023-04-25T02:02:27;7.55;;;2.80;;
46835;SDS011;32573;51.290;6.926;2023-04-25T02:04:56;10.68;;;3.22;;
46835;SDS011;32573;51.290;6.926;2023-04-25T02:07:28;6.13;;;2.60;;
46835;SDS011;32573;51.290;6.926;2023-04-25T02:10:03;8.00;;;3.70;;
46835;SDS011;32573;51.290;6.926;2023-04-25T02:13:05;9.85;;;3.50;;
46835;SDS011;32573;51.290;6.926;2023-04-25T02:15:54;6.13;;;2.78;;
46835;SDS011;32573;51.290;6.926;2023-04-25T02:18:25;5.95;;;2.60;;
46835;SDS011;32573;51.290;6.926;2023-04-25T02:20:54;10.25;;;2.95;;
46835;SDS011;32573;51.290;6.926;2023-04-25T02:23:24;7.15;;;3.03;;
46835;SDS011;32573;51.290;6.926;2023-04-25T02:25:53;8.55;;;3.50;;
46835;SDS011;32573;51.290;6.926;2023-04-25T02:28:22;6.53;;;2.65;;
46835;SDS011;32573;51.290;6.926;2023-04-25T02:30:51;9.70;;;3.60;;
46835;SDS011;32573;51.290;6.926;2023-04-25T02:33:20;6.38;;;2.58;;
46835;SDS011;32573;51.290;6.926;2023-04-25T02:35:49;5.30;;;2.58;;
46835;SDS011;32573;51.290;6.926;2023-04-25T02:38:21;5.35;;;2.30;;
46835;SDS011;32573;51.290;6.926;2023-04-25T02:40:58;6.40;;;2.25;;
46835;SDS011;32573;51.290;6.926;2023-04-25T02:43:27;5.60;;;2.55;;
46835;SDS011;32573;51.290;6.926;2023-04-25T02:45:55;5.25;;;2.30;;
46835;SDS011;32573;51.290;6.926;2023-04-25T02:48:27;5.70;;;2.30;;
46835;SDS011;32573;51.290;6.926;2023-04-25T02:50:56;5.78;;;2.55;;
46835;SDS011;32573;51.290;6.926;2023-04-25T02:53:25;6.95;;;2.50;;
46835;SDS011;32573;51.290;6.926;2023-04-25T02:55:54;5.65;;;2.33;;
46835;SDS011;32573;51.290;6.926;2023-04-25T02:58:27;5.55;;;2.10;;
46835;SDS011;32573;51.290;6.926;2023-04-25T03:00:56;5.45;;;2.08;;
46835;SDS011;32573;51.290;6.926;2023-04-25T03:03:28;7.80;;;2.60;;
46835;SDS011;32573;51.290;6.926;2023-04-25T03:05:57;6.50;;;2.50;;
46835;SDS011;32573;51.290;6.926;2023-04-25T03:08:31;5.38;;;2.10;;
46835;SDS011;32573;51.290;6.926;2023-04-25T03:11:01;6.25;;;2.70;;
46835;SDS011;32573;51.290;6.926;2023-04-25T03:13:34;5.47;;;2.60;;
46835;SDS011;32573;51.290;6.926;2023-04-25T03:16:08;6.50;;;2.30;;
46835;SDS011;32573;51.290;6.926;2023-04-25T03:18:37;5.25;;;2.42;;
46835;SDS011;32573;51.290;6.926;2023-04-25T03:21:05;5.30;;;2.05;;
46835;SDS011;32573;51.290;6.926;2023-04-25T03:23:35;8.63;;;2.70;;
46835;SDS011;32573;51.290;6.926;2023-04-25T03:26:09;11.65;;;3.10;;
46835;SDS011;32573;51.290;6.926;2023-04-25T03:28:47;6.10;;;2.50;;
46835;SDS011;32573;51.290;6.926;2023-04-25T03:31:19;5.10;;;2.47;;
46835;SDS011;32573;51.290;6.926;2023-04-25T03:33:49;4.75;;;2.40;;
46835;SDS011;32573;51.290;6.926;2023-04-25T03:36:21;5.90;;;2.60;;
46835;SDS011;32573;51.290;6.926;2023-04-25T03:38:53;6.60;;;2.85;;
46835;SDS011;32573;51.290;6.926;2023-04-25T03:41:22;5.00;;;2.50;;
46835;SDS011;32573;51.290;6.926;2023-04-25T03:44:00;6.30;;;2.33;;
46835;SDS011;32573;51.290;6.926;2023-04-25T03:46:29;4.53;;;2.25;;
46835;SDS011;32573;51.290;6.926;2023-04-25T03:49:00;8.82;;;3.30;;
46835;SDS011;32573;51.290;6.926;2023-04-25T03:51:49;6.10;;;2.60;;
46835;SDS011;32573;51.290;6.926;2023-04-25T03:54:17;5.40;;;2.38;;
46835;SDS011;32573;51.290;6.926;2023-04-25T03:56:54;6.53;;;2.40;;
46835;SDS011;32573;51.290;6.926;2023-04-25T03:59:27;6.10;;;2.50;;
46835;SDS011;32573;51.290;6.926;2023-04-25T04:01:57;5.13;;;2.47;;
46835;SDS011;32573;51.290;6.926;2023-04-25T04:04:27;4.75;;;2.17;;
46835;SDS011;32573;51.290;6.926;2023-04-25T04:06:56;6.65;;;2.30;;
46835;SDS011;32573;51.290;6.926;2023-04-25T04:09:28;6.75;;;2.13;;
46835;SDS011;32573;51.290;6.926;2023-04-25T04:11:58;6.40;;;2.28;;
46835;SDS011;32573;51.290;6.926;2023-04-25T04:14:31;6.18;;;2.70;;
46835;SDS011;32573;51.290;6.926;2023-04-25T04:17:00;5.18;;;2.40;;
46835;SDS011;32573;51.290;6.926;2023-04-25T04:19:34;8.25;;;2.85;;
46835;SDS011;32573;51.290;6.926;2023-04-25T04:22:08;8.32;;;2.90;;
46835;SDS011;32573;51.290;6.926;2023-04-25T04:24:38;8.07;;;3.00;;
46835;SDS011;32573;51.290;6.926;2023-04-25T04:27:08;6.60;;;2.47;;
46835;SDS011;32573;51.290;6.926;2023-04-25T04:29:45;5.35;;;2.55;;
46835;SDS011;32573;51.290;6.926;2023-04-25T04:32:34;8.05;;;2.63;;
46835;SDS011;32573;51.290;6.926;2023-04-25T04:35:06;7.50;;;3.00;;
46835;SDS011;32573;51.290;6.926;2023-04-25T04:37:36;7.72;;;2.47;;
46835;SDS011;32573;51.290;6.926;2023-04-25T04:40:08;5.85;;;2.60;;
46835;SDS011;32573;51.290;6.926;2023-04-25T04:43:02;5.77;;;2.33;;
46835;SDS011;32573;51.290;6.926;2023-04-25T04:45:59;7.00;;;2.97;;
46835;SDS011;32573;51.290;6.926;2023-04-25T04:48:50;7.70;;;2.90;;
46835;SDS011;32573;51.290;6.926;2023-04-25T04:51:49;15.02;;;6.10;;
46835;SDS011;32573;51.290;6.926;2023-04-25T04:54:48;14.20;;;4.38;;
46835;SDS011;32573;51.290;6.926;2023-04-25T04:57:35;12.20;;;3.95;;
46835;SDS011;32573;51.290;6.926;2023-04-25T05:00:26;6.38;;;3.30;;
46835;SDS011;32573;51.290;6.926;2023-04-25T05:03:21;7.60;;;3.50;;
46835;SDS011;32573;51.290;6.926;2023-04-25T05:06:09;7.68;;;3.15;;
46835;SDS011;32573;51.290;6.926;2023-04-25T05:08:59;6.05;;;2.78;;
46835;SDS011;32573;51.290;6.926;2023-04-25T05:12:01;10.30;;;3.85;;
46835;SDS011;32573;51.290;6.926;2023-04-25T05:14:47;7.35;;;3.00;;
46835;SDS011;32573;51.290;6.926;2023-04-25T05:17:34;11.20;;;3.35;;
46835;SDS011;32573;51.290;6.926;2023-04-25T05:20:27;7.00;;;2.97;;
46835;SDS011;32573;51.290;6.926;2023-04-25T05:23:14;6.13;;;2.55;;
46835;SDS011;32573;51.290;6.926;2023-04-25T05:26:28;6.40;;;2.70;;
46835;SDS011;32573;51.290;6.926;2023-04-25T05:29:14;11.02;;;3.60;;
46835;SDS011;32573;51.290;6.926;2023-04-25T05:32:21;8.55;;;2.75;;
46835;SDS011;32573;51.290;6.926;2023-04-25T05:37:29;6.60;;;2.45;;
46835;SDS011;32573;51.290;6.926;2023-04-25T05:40:10;6.63;;;2.38;;
46835;SDS011;32573;51.290;6.926;2023-04-25T05:42:42;6.30;;;2.30;;
46835;SDS011;32573;51.290;6.926;2023-04-25T05:45:29;8.23;;;2.70;;
46835;SDS011;32573;51.290;6.926;2023-04-25T05:48:04;9.00;;;3.00;;
46835;SDS011;32573;51.290;6.926;2023-04-25T05:51:13;9.32;;;3.42;;
46835;SDS011;32573;51.290;6.926;2023-04-25T05:53:58;8.02;;;2.90;;
46835;SDS011;32573;51.290;6.926;2023-04-25T05:56:27;6.50;;;2.80;;
46835;SDS011;32573;51.290;6.926;2023-04-25T05:58:56;7.68;;;3.00;;
46835;SDS011;32573;51.290;6.926;2023-04-25T06:01:26;9.35;;;2.80;;
46835;SDS011;32573;51.290;6.926;2023-04-25T06:03:55;7.72;;;2.72;;
46835;SDS011;32573;51.290;6.926;2023-04-25T06:06:24;11.30;;;4.03;;
46835;SDS011;32573;51.290;6.926;2023-04-25T06:08:53;12.30;;;3.53;;
46835;SDS011;32573;51.290;6.926;2023-04-25T06:11:24;9.07;;;2.95;;
46835;SDS011;32573;51.290;6.926;2023-04-25T06:13:53;7.47;;;2.85;;
46835;SDS011;32573;51.290;6.926;2023-04-25T06:16:21;6.22;;;2.60;;
46835;SDS011;32573;51.290;6.926;2023-04-25T06:18:53;8.23;;;3.17;;
46835;SDS011;32573;51.290;6.926;2023-04-25T06:21:21;7.80;;;2.67;;
46835;SDS011;32573;51.290;6.926;2023-04-25T06:23:51;8.85;;;2.75;;
46835;SDS011;32573;51.290;6.926;2023-04-25T06:26:22;7.50;;;2.85;;
46835;SDS011;32573;51.290;6.926;2023-04-25T06:28:53;9.15;;;2.80;;
46835;SDS011;32573;51.290;6.926;2023-04-25T06:31:21;8.75;;;3.15;;
46835;SDS011;32573;51.290;6.926;2023-04-25T06:33:51;7.90;;;2.50;;
46835;SDS011;32573;51.290;6.926;2023-04-25T06:36:24;6.70;;;2.75;;
46835;SDS011;32573;51.290;6.926;2023-04-25T06:39:00;6.70;;;2.80;;
46835;SDS011;32573;51.290;6.926;2023-04-25T06:41:30;7.57;;;3.10;;
46835;SDS011;32573;51.290;6.926;2023-04-25T06:44:01;8.68;;;3.03;;
46835;SDS011;32573;51.290;6.926;2023-04-25T06:46:48;8.05;;;3.00;;
46835;SDS011;32573;51.290;6.926;2023-04-25T06:49:18;7.80;;;2.85;;
46835;SDS011;32573;51.290;6.926;2023-04-25T06:51:47;9.98;;;3.58;;
46835;SDS011;32573;51.290;6.926;2023-04-25T06:54:15;11.43;;;3.83;;
46835;SDS011;32573;51.290;6.926;2023-04-25T06:56:56;12.05;;;3.60;;
46835;SDS011;32573;51.290;6.926;2023-04-25T06:59:26;12.15;;;3.50;;
46835;SDS011;32573;51.290;6.926;2023-04-25T07:01:55;11.05;;;3.70;;
46835;SDS011;32573;51.290;6.926;2023-04-25T07:04:26;10.40;;;3.30;;
46835;SDS011;32573;51.290;6.926;2023-04-25T07:06:59;11.75;;;3.42;;
46835;SDS011;32573;51.290;6.926;2023-04-25T07:09:41;9.07;;;3.13;;
46835;SDS011;32573;51.290;6.926;2023-04-25T07:12:11;6.85;;;3.20;;
46835;SDS011;32573;51.290;6.926;2023-04-25T07:14:44;9.85;;;3.03;;
46835;SDS011;32573;51.290;6.926;2023-04-25T07:17:15;9.60;;;3.30;;
46835;SDS011;32573;51.290;6.926;2023-04-25T07:19:49;7.63;;;3.10;;
46835;SDS011;32573;51.290;6.926;2023-04-25T07:22:20;8.38;;;2.75;;
46835;SDS011;32573;51.290;6.926;2023-04-25T07:24:49;10.85;;;3.00;;
46835;SDS011;32573;51.290;6.926;2023-04-25T07:27:24;7.70;;;2.50;;
46835;SDS011;32573;51.290;6.926;2023-04-25T07:30:05;8.88;;;3.70;;
46835;SDS011;32573;51.290;6.926;2023-04-25T07:32:38;10.35;;;3.80;;
46835;SDS011;32573;51.290;6.926;2023-04-25T07:35:07;8.52;;;3.20;;
46835;SDS011;32573;51.290;6.926;2023-04-25T07:37:37;7.63;;;3.70;;
46835;SDS011;32573;51.290;6.926;2023-04-25T07:40:12;6.57;;;3.63;;
46835;SDS011;32573;51.290;6.926;2023-04-25T07:42:53;10.25;;;3.97;;
46835;SDS011;32573;51.290;6.926;2023-04-25T07:45:29;12.38;;;4.20;;
46835;SDS011;32573;51.290;6.926;2023-04-25T07:47:58;7.85;;;3.40;;
46835;SDS011;32573;51.290;6.926;2023-04-25T07:50:29;8.30;;;3.13;;
46835;SDS011;32573;51.290;6.926;2023-04-25T07:53:03;7.75;;;3.35;;
46835;SDS011;32573;51.290;6.926;2023-04-25T07:55:37;6.20;;;2.97;;
46835;SDS011;32573;51.290;6.926;2023-04-25T07:58:15;8.18;;;3.15;;
46835;SDS011;32573;51.290;6.926;2023-04-25T08:00:52;7.25;;;2.85;;
46835;SDS011;32573;51.290;6.926;2023-04-25T08:03:39;6.47;;;3.08;;
46835;SDS011;32573;51.290;6.926;2023-04-25T08:06:14;8.18;;;2.60;;
46835;SDS011;32573;51.290;6.926;2023-04-25T08:08:55;5.80;;;2.33;;
46835;SDS011;32573;51.290;6.926;2023-04-25T08:11:31;6.38;;;2.70;;
46835;SDS011;32573;51.290;6.926;2023-04-25T08:14:01;8.45;;;2.75;;
46835;SDS011;32573;51.290;6.926;2023-04-25T08:16:29;6.55;;;2.53;;
46835;SDS011;32573;51.290;6.926;2023-04-25T08:18:59;7.05;;;2.40;;
46835;SDS011;32573;51.290;6.926;2023-04-25T08:21:27;7.00;;;2.55;;
46835;SDS011;32573;51.290;6.926;2023-04-25T08:23:59;8.60;;;2.67;;
46835;SDS011;32573;51.290;6.926;2023-04-25T08:26:33;9.60;;;3.75;;
46835;SDS011;32573;51.290;6.926;2023-04-25T08:29:05;8.35;;;3.72;;
46835;SDS011;32573;51.290;6.926;2023-04-25T08:31:38;9.55;;;4.28;;
46835;SDS011;32573;51.290;6.926;2023-04-25T08:34:08;8.35;;;3.75;;
46835;SDS011;32573;51.290;6.926;2023-04-25T08:36:45;9.43;;;3.90;;
46835;SDS011;32573;51.290;6.926;2023-04-25T08:39:20;9.02;;;3.72;;
46835;SDS011;32573;51.290;6.926;2023-04-25T08:42:07;10.27;;;4.35;;
46835;SDS011;32573;51.290;6.926;2023-04-25T08:44:37;12.93;;;4.05;;
46835;SDS011;32573;51.290;6.926;2023-04-25T08:47:06;9.82;;;4.03;;
46835;SDS011;32573;51.290;6.926;2023-04-25T08:49:42;10.05;;;3.75;;
46835;SDS011;32573;51.290;6.926;2023-04-25T08:52:15;8.55;;;3.92;;
46835;SDS011;32573;51.290;6.926;2023-04-25T08:54:49;7.78;;;3.63;;
46835;SDS011;32573;51.290;6.926;2023-04-25T08:57:20;6.93;;;3.40;;
46835;SDS011;32573;51.290;6.926;2023-04-25T08:59:51;7.82;;;3.38;;
46835;SDS011;32573;51.290;6.926;2023-04-25T09:02:22;9.50;;;3.58;;
46835;SDS011;32573;51.290;6.926;2023-04-25T09:04:52;9.00;;;3.25;;
46835;SDS011;32573;51.290;6.926;2023-04-25T09:07:23;9.27;;;2.88;;
46835;SDS011;32573;51.290;6.926;2023-04-25T09:09:53;7.07;;;2.90;;
46835;SDS011;32573;51.290;6.926;2023-04-25T09:12:22;9.32;;;3.03;;
46835;SDS011;32573;51.290;6.926;2023-04-25T09:15:04;8.27;;;2.63;;
46835;SDS011;32573;51.290;6.926;2023-04-25T09:17:54;7.53;;;2.78;;
46835;SDS011;32573;51.290;6.926;2023-04-25T09:20:28;7.53;;;2.42;;
46835;SDS011;32573;51.290;6.926;2023-04-25T09:23:01;6.85;;;2.47;;
46835;SDS011;32573;51.290;6.926;2023-04-25T09:25:35;8.25;;;3.05;;
46835;SDS011;32573;51.290;6.926;2023-04-25T09:28:07;6.93;;;2.60;;
46835;SDS011;32573;51.290;6.926;2023-04-25T09:30:38;7.32;;;2.30;;
46835;SDS011;32573;51.290;6.926;2023-04-25T09:33:12;7.13;;;2.30;;
46835;SDS011;32573;51.290;6.926;2023-04-25T09:35:46;7.63;;;2.05;;
46835;SDS011;32573;51.290;6.926;2023-04-25T09:38:27;6.00;;;2.35;;
46835;SDS011;32573;51.290;6.926;2023-04-25T09:41:09;7.32;;;2.47;;
46835;SDS011;32573;51.290;6.926;2023-04-25T09:43:44;8.30;;;2.22;;
46835;SDS011;32573;51.290;6.926;2023-04-25T09:46:16;7.03;;;2.10;;
46835;SDS011;32573;51.290;6.926;2023-04-25T09:48:52;5.60;;;2.08;;
46835;SDS011;32573;51.290;6.926;2023-04-25T09:51:29;5.82;;;1.90;;
46835;SDS011;32573;51.290;6.926;2023-04-25T09:53:59;7.53;;;2.00;;
46835;SDS011;32573;51.290;6.926;2023-04-25T09:56:37;6.00;;;2.08;;
46835;SDS011;32573;51.290;6.926;2023-04-25T09:59:07;5.10;;;1.92;;
46835;SDS011;32573;51.290;6.926;2023-04-25T10:01:39;9.15;;;2.20;;
46835;SDS011;32573;51.290;6.926;2023-04-25T10:04:22;4.97;;;1.70;;
46835;SDS011;32573;51.290;6.926;2023-04-25T10:07:16;4.47;;;1.90;;
46835;SDS011;32573;51.290;6.926;2023-04-25T10:09:47;6.30;;;1.60;;
46835;SDS011;32573;51.290;6.926;2023-04-25T10:12:17;5.75;;;1.80;;
46835;SDS011;32573;51.290;6.926;2023-04-25T10:14:46;3.97;;;1.75;;
46835;SDS011;32573;51.290;6.926;2023-04-25T10:17:17;5.03;;;1.50;;
46835;SDS011;32573;51.290;6.926;2023-04-25T10:19:47;4.78;;;1.50;;
46835;SDS011;32573;51.290;6.926;2023-04-25T10:22:17;4.43;;;1.35;;
46835;SDS011;32573;51.290;6.926;2023-04-25T10:24:51;6.03;;;1.50;;
46835;SDS011;32573;51.290;6.926;2023-04-25T10:27:21;4.88;;;1.40;;
46835;SDS011;32573;51.290;6.926;2023-04-25T10:29:59;5.85;;;1.52;;
46835;SDS011;32573;51.290;6.926;2023-04-25T10:32:32;5.20;;;1.30;;
46835;SDS011;32573;51.290;6.926;2023-04-25T10:35:10;3.22;;;1.00;;
46835;SDS011;32573;51.290;6.926;2023-04-25T10:40:27;3.90;;;1.20;;
46835;SDS011;32573;51.290;6.926;2023-04-25T10:43:33;3.13;;;1.13;;
46835;SDS011;32573;51.290;6.926;2023-04-25T10:46:18;4.45;;;1.65;;
46835;SDS011;32573;51.290;6.926;2023-04-25T10:48:48;4.30;;;1.30;;
46835;SDS011;32573;51.290;6.926;2023-04-25T10:51:18;3.85;;;1.38;;
46835;SDS011;32573;51.290;6.926;2023-04-25T10:53:58;4.97;;;1.23;;
46835;SDS011;32573;51.290;6.926;2023-04-25T10:56:28;3.42;;;1.20;;
46835;SDS011;32573;51.290;6.926;2023-04-25T10:59:09;4.15;;;1.17;;
46835;SDS011;32573;51.290;6.926;2023-04-25T11:01:39;3.92;;;1.40;;
46835;SDS011;32573;51.290;6.926;2023-04-25T11:04:19;3.60;;;1.20;;
46835;SDS011;32573;51.290;6.926;2023-04-25T11:06:58;4.00;;;1.48;;
46835;SDS011;32573;51.290;6.926;2023-04-25T11:09:33;3.45;;;1.30;;
46835;SDS011;32573;51.290;6.926;2023-04-25T11:12:03;3.97;;;1.40;;
46835;SDS011;32573;51.290;6.926;2023-04-25T11:14:34;5.85;;;1.50;;
46835;SDS011;32573;51.290;6.926;2023-04-25T11:17:03;4.20;;;1.33;;
46835;SDS011;32573;51.290;6.926;2023-04-25T11:19:32;4.57;;;1.40;;
46835;SDS011;32573;51.290;6.926;2023-04-25T11:22:01;5.22;;;1.33;;
46835;SDS011;32573;51.290;6.926;2023-04-25T11:24:34;4.78;;;1.48;;
46835;SDS011;32573;51.290;6.926;2023-04-25T11:27:03;5.82;;;1.40;;
46835;SDS011;32573;51.290;6.926;2023-04-25T11:29:35;3.80;;;1.30;;
46835;SDS011;32573;51.290;6.926;2023-04-25T11:32:03;3.83;;;1.23;;
46835;SDS011;32573;51.290;6.926;2023-04-25T11:34:32;4.05;;;1.30;;
46835;SDS011;32573;51.290;6.926;2023-04-25T11:37:01;3.03;;;1.15;;
46835;SDS011;32573;51.290;6.926;2023-04-25T11:39:31;5.30;;;1.52;;
46835;SDS011;32573;51.290;6.926;2023-04-25T11:41:59;4.40;;;1.30;;
46835;SDS011;32573;51.290;6.926;2023-04-25T11:44:41;4.65;;;1.50;;
46835;SDS011;32573;51.290;6.926;2023-04-25T11:47:09;5.53;;;1.50;;
46835;SDS011;32573;51.290;6.926;2023-04-25T11:49:39;5.35;;;1.60;;
46835;SDS011;32573;51.290;6.926;2023-04-25T11:52:09;3.38;;;1.30;;
46835;SDS011;32573;51.290;6.926;2023-04-25T11:54:41;3.47;;;1.20;;
46835;SDS011;32573;51.290;6.926;2023-04-25T11:57:09;4.70;;;1.40;;
46835;SDS011;32573;51.290;6.926;2023-04-25T11:59:41;4.43;;;1.60;;
46835;SDS011;32573;51.290;6.926;2023-04-25T12:02:23;4.88;;;1.80;;
46835;SDS011;32573;51.290;6.926;2023-04-25T12:04:52;3.80;;;1.38;;
46835;SDS011;32573;51.290;6.926;2023-04-25T12:07:28;5.25;;;1.60;;
46835;SDS011;32573;51.290;6.926;2023-04-25T12:09:57;6.35;;;1.55;;
46835;SDS011;32573;51.290;6.926;2023-04-25T12:12:27;5.45;;;1.60;;
46835;SDS011;32573;51.290;6.926;2023-04-25T12:15:09;3.38;;;1.50;;
46835;SDS011;32573;51.290;6.926;2023-04-25T12:17:39;4.15;;;1.50;;
46835;SDS011;32573;51.290;6.926;2023-04-25T12:20:09;3.60;;;1.42;;
46835;SDS011;32573;51.290;6.926;2023-04-25T12:22:39;4.82;;;1.58;;
46835;SDS011;32573;51.290;6.926;2023-04-25T12:25:11;5.60;;;1.55;;
46835;SDS011;32573;51.290;6.926;2023-04-25T12:27:40;4.70;;;1.50;;
46835;SDS011;32573;51.290;6.926;2023-04-25T12:30:12;5.18;;;1.40;;
46835;SDS011;32573;51.290;6.926;2023-04-25T12:32:41;6.00;;;2.00;;
46835;SDS011;32573;51.290;6.926;2023-04-25T12:35:10;4.22;;;1.50;;
46835;SDS011;32573;51.290;6.926;2023-04-25T12:37:38;4.95;;;1.58;;
46835;SDS011;32573;51.290;6.926;2023-04-25T12:40:07;4.00;;;1.70;;
46835;SDS011;32573;51.290;6.926;2023-04-25T12:42:38;4.43;;;1.83;;
46835;SDS011;32573;51.290;6.926;2023-04-25T12:45:08;3.50;;;1.40;;
46835;SDS011;32573;51.290;6.926;2023-04-25T12:47:38;4.40;;;1.40;;
46835;SDS011;32573;51.290;6.926;2023-04-25T12:50:07;4.18;;;1.35;;
46835;SDS011;32573;51.290;6.926;2023-04-25T12:52:36;4.22;;;1.55;;
46835;SDS011;32573;51.290;6.926;2023-04-25T12:55:04;4.55;;;1.50;;
46835;SDS011;32573;51.290;6.926;2023-04-25T12:57:33;4.82;;;1.90;;
46835;SDS011;32573;51.290;6.926;2023-04-25T13:00:02;4.55;;;1.50;;
46835;SDS011;32573;51.290;6.926;2023-04-25T13:02:34;3.60;;;1.52;;
46835;SDS011;32573;51.290;6.926;2023-04-25T13:05:04;3.40;;;1.65;;
46835;SDS011;32573;51.290;6.926;2023-04-25T13:07:34;4.60;;;1.80;;
46835;SDS011;32573;51.290;6.926;2023-04-25T13:10:03;4.97;;;1.60;;
46835;SDS011;32573;51.290;6.926;2023-04-25T13:12:32;5.00;;;1.55;;
46835;SDS011;32573;51.290;6.926;2023-04-25T13:15:01;4.68;;;1.58;;
46835;SDS011;32573;51.290;6.926;2023-04-25T13:17:31;5.22;;;1.73;;
46835;SDS011;32573;51.290;6.926;2023-04-25T13:20:00;4.18;;;1.73;;
46835;SDS011;32573;51.290;6.926;2023-04-25T13:22:33;6.07;;;1.92;;
46835;SDS011;32573;51.290;6.926;2023-04-25T13:25:04;6.32;;;1.50;;
46835;SDS011;32573;51.290;6.926;2023-04-25T13:27:34;5.82;;;1.70;;
46835;SDS011;32573;51.290;6.926;2023-04-25T13:30:03;4.00;;;1.40;;
46835;SDS011;32573;51.290;6.926;2023-04-25T13:32:34;3.72;;;1.70;;
46835;SDS011;32573;51.290;6.926;2023-04-25T13:35:05;3.97;;;1.52;;
46835;SDS011;32573;51.290;6.926;2023-04-25T13:37:38;4.13;;;1.30;;
46835;SDS011;32573;51.290;6.926;2023-04-25T13:40:08;4.90;;;1.60;;
46835;SDS011;32573;51.290;6.926;2023-04-25T13:42:40;4.55;;;1.60;;
46835;SDS011;32573;51.290;6.926;2023-04-25T13:45:08;4.68;;;1.70;;
46835;SDS011;32573;51.290;6.926;2023-04-25T13:47:37;4.82;;;1.50;;
46835;SDS011;32573;51.290;6.926;2023-04-25T13:50:06;5.07;;;1.60;;
46835;SDS011;32573;51.290;6.926;2023-04-25T13:52:35;4.40;;;1.80;;
46835;SDS011;32573;51.290;6.926;2023-04-25T13:55:05;4.38;;;1.50;;
46835;SDS011;32573;51.290;6.926;2023-04-25T13:57:35;3.05;;;1.30;;
46835;SDS011;32573;51.290;6.926;2023-04-25T14:00:07;4.43;;;1.50;;
46835;SDS011;32573;51.290;6.926;2023-04-25T14:02:36;4.15;;;1.20;;
46835;SDS011;32573;51.290;6.926;2023-04-25T14:05:06;2.80;;;1.30;;
46835;SDS011;32573;51.290;6.926;2023-04-25T14:07:36;3.22;;;1.20;;
46835;SDS011;32573;51.290;6.926;2023-04-25T14:10:06;3.60;;;1.20;;
46835;SDS011;32573;51.290;6.926;2023-04-25T14:12:35;3.65;;;1.30;;
46835;SDS011;32573;51.290;6.926;2023-04-25T14:15:04;2.33;;;1.10;;
46835;SDS011;32573;51.290;6.926;2023-04-25T14:17:34;5.15;;;1.20;;
46835;SDS011;32573;51.290;6.926;2023-04-25T14:20:02;3.10;;;1.30;;
46835;SDS011;32573;51.290;6.926;2023-04-25T14:22:33;3.10;;;1.27;;
46835;SDS011;32573;51.290;6.926;2023-04-25T14:25:01;4.05;;;1.30;;
46835;SDS011;32573;51.290;6.926;2023-04-25T14:27:31;3.95;;;1.40;;
46835;SDS011;32573;51.290;6.926;2023-04-25T14:30:00;3.83;;;1.45;;
46835;SDS011;32573;51.290;6.926;2023-04-25T14:32:28;4.18;;;1.35;;
46835;SDS011;32573;51.290;6.926;2023-04-25T14:34:58;3.80;;;1.20;;
46835;SDS011;32573;51.290;6.926;2023-04-25T14:37:30;3.28;;;1.23;;
46835;SDS011;32573;51.290;6.926;2023-04-25T14:39:59;4.32;;;1.30;;
46835;SDS011;32573;51.290;6.926;2023-04-25T14:42:27;3.00;;;1.30;;
46835;SDS011;32573;51.290;6.926;2023-04-25T14:44:58;3.45;;;1.42;;
46835;SDS011;32573;51.290;6.926;2023-04-25T14:47:26;4.03;;;1.48;;
46835;SDS011;32573;51.290;6.926;2023-04-25T14:49:55;2.75;;;1.33;;
46835;SDS011;32573;51.290;6.926;2023-04-25T14:52:24;5.50;;;1.60;;
46835;SDS011;32573;51.290;6.926;2023-04-25T14:54:52;4.88;;;1.45;;
46835;SDS011;32573;51.290;6.926;2023-04-25T14:57:21;4.78;;;1.42;;
46835;SDS011;32573;51.290;6.926;2023-04-25T14:59:49;5.18;;;1.50;;
46835;SDS011;32573;51.290;6.926;2023-04-25T15:02:19;3.90;;;1.10;;
46835;SDS011;32573;51.290;6.926;2023-04-25T15:04:48;3.45;;;1.10;;
46835;SDS011;32573;51.290;6.926;2023-04-25T15:07:17;3.78;;;1.10;;
46835;SDS011;32573;51.290;6.926;2023-04-25T15:09:46;4.07;;;1.30;;
46835;SDS011;32573;51.290;6.926;2023-04-25T15:12:15;3.60;;;1.13;;
46835;SDS011;32573;51.290;6.926;2023-04-25T15:14:44;2.25;;;1.00;;
46835;SDS011;32573;51.290;6.926;2023-04-25T15:17:13;3.30;;;1.13;;
46835;SDS011;32573;51.290;6.926;2023-04-25T15:19:43;5.43;;;1.27;;
46835;SDS011;32573;51.290;6.926;2023-04-25T15:22:12;3.25;;;1.00;;
46835;SDS011;32573;51.290;6.926;2023-04-25T15:24:40;3.28;;;1.10;;
46835;SDS011;32573;51.290;6.926;2023-04-25T15:27:09;3.70;;;1.30;;